Time;durP1;ratioP1;P1;durP2;ratioP2;P2;SDS_P1;SDS_P2;PMS_P1;PMS_P2;Temp;Humidity;BMP_temperature;BMP_pressure;BME280_temperature;BME280_humidity;BME280_pressure;Samples;Min_cycle;Max_cycle;Signal;HPM_P1;HPM_P2
2022/07/06 00:01:24;;;;;;;7.65;4.57;;;29.50;99.10;;;;;;4158507;28;20049;-65
2022/07/06 00:03:31;;;;;;;9.63;4.28;;;29.60;99.20;;;;;;4192024;28;20685;-65
2022/07/06 00:05:36;;;;;;;7.35;4.68;;;29.60;99.10;;;;;;4193110;28;20606;-66
2022/07/06 00:07:42;;;;;;;6.55;4.32;;;29.60;99.20;;;;;;4194964;28;20068;-66
2022/07/06 00:10:05;;;;;;;7.95;4.55;;;29.60;99.40;;;;;;4208103;28;20044;-65
2022/07/06 00:12:11;;;;;;;10.18;5.30;;;29.70;99.20;;;;;;4193363;28;20123;-65
2022/07/06 00:14:18;;;;;;;9.07;4.65;;;29.70;99.20;;;;;;4194430;28;20499;-65
2022/07/06 00:16:25;;;;;;;9.02;4.50;;;29.70;99.00;;;;;;4194582;28;20059;-66
2022/07/06 00:18:30;;;;;;;10.05;5.25;;;29.70;98.90;;;;;;4194487;28;20414;-65
2022/07/06 00:20:35;;;;;;;7.03;4.57;;;29.70;99.00;;;;;;4195778;28;20046;-66
2022/07/06 00:22:41;;;;;;;9.65;5.15;;;29.70;98.80;;;;;;4196035;28;20166;-65
2022/07/06 00:24:48;;;;;;;7.45;4.70;;;29.80;99.20;;;;;;4195302;28;20071;-66
2022/07/06 00:26:54;;;;;;;7.70;4.63;;;29.80;99.10;;;;;;4194128;28;20052;-66
2022/07/06 00:29:01;;;;;;;10.15;4.70;;;29.70;99.30;;;;;;4196118;28;20423;-65
2022/07/06 00:31:06;;;;;;;9.23;4.53;;;29.70;98.90;;;;;;4191743;28;20049;-66
2022/07/06 00:33:12;;;;;;;8.63;5.07;;;29.80;98.90;;;;;;4166606;28;20053;-65
2022/07/06 00:35:20;;;;;;;8.18;5.13;;;29.90;98.80;;;;;;4160941;28;20559;-66
2022/07/06 00:37:26;;;;;;;9.27;4.85;;;29.90;98.70;;;;;;4161547;28;20037;-66
2022/07/06 00:39:33;;;;;;;9.02;4.78;;;29.90;98.60;;;;;;4145935;28;20050;-65
2022/07/06 00:41:40;;;;;;;10.38;5.35;;;29.90;98.50;;;;;;4162554;28;20060;-65
2022/07/06 00:43:55;;;;;;;9.38;5.53;;;30.00;98.40;;;;;;4161299;28;20056;-65
2022/07/06 00:46:02;;;;;;;9.25;5.57;;;30.00;98.40;;;;;;4162394;28;20467;-65
2022/07/06 00:48:08;;;;;;;12.18;5.95;;;29.90;98.60;;;;;;4162168;28;20128;-67
2022/07/06 00:50:25;;;;;;;10.13;5.97;;;30.00;98.50;;;;;;4169615;28;20045;-65
2022/07/06 00:52:31;;;;;;;11.15;5.97;;;30.10;98.40;;;;;;4178732;28;20066;-64
2022/07/06 00:54:38;;;;;;;7.18;4.65;;;30.10;98.50;;;;;;4178988;28;20048;-64
2022/07/06 00:56:43;;;;;;;15.70;5.78;;;30.10;98.30;;;;;;4178769;28;20059;-65
2022/07/06 00:58:49;;;;;;;9.20;5.00;;;30.20;98.30;;;;;;4177826;28;20148;-65
2022/07/06 01:00:54;;;;;;;9.88;4.80;;;30.10;98.10;;;;;;4161177;28;20072;-65
2022/07/06 01:02:59;;;;;;;9.13;5.05;;;30.10;98.10;;;;;;4161495;28;20091;-64
2022/07/06 01:05:07;;;;;;;10.88;5.75;;;30.20;98.00;;;;;;4161891;28;20120;-65
2022/07/06 01:07:13;;;;;;;9.50;5.43;;;30.20;98.40;;;;;;4161272;28;20049;-64
2022/07/06 01:09:18;;;;;;;11.27;5.63;;;30.30;98.30;;;;;;4161215;28;20060;-64
2022/07/06 01:11:25;;;;;;;9.82;5.50;;;30.30;98.40;;;;;;4161185;28;20049;-64
2022/07/06 01:13:31;;;;;;;12.00;5.25;;;30.30;98.10;;;;;;4162040;28;20068;-64
2022/07/06 01:15:36;;;;;;;8.02;4.70;;;30.30;98.10;;;;;;4161995;28;20065;-64
2022/07/06 01:17:43;;;;;;;12.82;5.07;;;30.30;98.00;;;;;;4162175;28;20523;-65
2022/07/06 01:19:50;;;;;;;14.50;5.53;;;30.40;98.00;;;;;;4145226;28;20426;-64
2022/07/06 01:21:55;;;;;;;11.27;4.72;;;30.40;98.00;;;;;;4160989;28;20160;-64
2022/07/06 01:24:01;;;;;;;10.68;5.05;;;30.50;98.30;;;;;;4160438;28;20041;-64
2022/07/06 01:26:16;;;;;;;8.45;4.57;;;30.50;97.90;;;;;;4161676;28;20187;-64
2022/07/06 01:28:20;;;;;;;10.70;4.53;;;30.50;97.90;;;;;;4161073;28;20108;-64
2022/07/06 01:30:28;;;;;;;10.13;4.60;;;30.50;97.80;;;;;;4145299;28;20077;-64
2022/07/06 01:32:34;;;;;;;10.30;4.68;;;30.50;97.70;;;;;;4174673;28;20107;-64
2022/07/06 01:34:41;;;;;;;7.60;4.25;;;30.60;97.60;;;;;;4177260;28;20083;-64
2022/07/06 01:36:47;;;;;;;7.35;3.97;;;30.50;97.90;;;;;;4176916;28;20091;-64
2022/07/06 01:38:59;;;;;;;12.70;4.63;;;30.60;97.90;;;;;;4177470;28;20045;-64
2022/07/06 01:41:08;;;;;;;10.68;4.60;;;30.70;97.80;;;;;;4178130;28;20211;-64
2022/07/06 01:43:15;;;;;;;10.48;4.63;;;30.70;97.80;;;;;;4178566;28;20535;-64
2022/07/06 01:45:21;;;;;;;9.95;4.40;;;30.70;97.70;;;;;;4175936;28;20045;-64
2022/07/06 01:47:28;;;;;;;10.75;4.43;;;30.80;97.60;;;;;;4176795;28;20095;-65
2022/07/06 01:49:35;;;;;;;10.63;4.68;;;30.80;97.60;;;;;;4176761;28;20049;-64
2022/07/06 01:51:42;;;;;;;9.05;4.45;;;30.80;97.50;;;;;;4176964;28;20041;-64
2022/07/06 01:53:47;;;;;;;8.32;4.32;;;30.90;97.40;;;;;;4176936;28;20064;-64
2022/07/06 01:55:53;;;;;;;9.32;4.35;;;30.80;97.50;;;;;;4176568;28;20075;-64
2022/07/06 01:58:00;;;;;;;21.05;7.00;;;30.90;97.30;;;;;;4176278;28;20094;-64
2022/07/06 02:00:07;;;;;;;9.38;4.28;;;30.90;97.60;;;;;;4176610;28;20041;-63
2022/07/06 02:02:21;;;;;;;9.82;4.55;;;31.10;97.60;;;;;;4146461;28;20153;-61
2022/07/06 02:04:28;;;;;;;8.70;4.60;;;31.20;97.20;;;;;;4161403;28;20065;-62
2022/07/06 02:06:33;;;;;;;13.13;4.45;;;31.20;97.20;;;;;;4160031;28;20049;-62
2022/07/06 02:08:38;;;;;;;13.52;4.80;;;31.20;97.30;;;;;;4161253;28;20132;-59
2022/07/06 02:10:45;;;;;;;12.90;4.72;;;31.20;97.10;;;;;;4159889;28;20057;-62
2022/07/06 02:12:50;;;;;;;7.57;4.35;;;31.20;97.00;;;;;;4174886;28;20503;-62
2022/07/06 02:14:57;;;;;;;9.75;4.10;;;31.20;96.70;;;;;;4159612;28;20048;-62
2022/07/06 02:17:02;;;;;;;6.38;4.10;;;31.20;97.00;;;;;;4169333;28;20803;-62
2022/07/06 02:19:09;;;;;;;8.27;4.10;;;31.30;97.10;;;;;;4183787;28;20055;-63
2022/07/06 02:21:18;;;;;;;10.70;4.20;;;31.30;97.10;;;;;;4175432;28;20103;-61
2022/07/06 02:23:25;;;;;;;8.18;4.43;;;31.40;96.90;;;;;;4188535;28;20491;-62
2022/07/06 02:25:31;;;;;;;11.05;4.35;;;31.50;97.00;;;;;;4192849;28;20047;-62
2022/07/06 02:27:37;;;;;;;9.20;4.10;;;31.40;96.90;;;;;;4190202;28;20059;-62
2022/07/06 02:29:44;;;;;;;10.52;4.60;;;31.50;96.80;;;;;;4192776;28;20143;-62
2022/07/06 02:31:49;;;;;;;7.90;4.10;;;31.50;96.80;;;;;;4185287;28;20509;-62
2022/07/06 02:33:55;;;;;;;10.00;4.97;;;31.50;96.90;;;;;;4186758;28;20079;-62
2022/07/06 02:36:00;;;;;;;9.80;4.63;;;31.50;96.50;;;;;;4193666;28;20044;-62
2022/07/06 02:38:05;;;;;;;8.85;4.57;;;31.50;96.50;;;;;;4190032;28;20168;-62
2022/07/06 02:40:12;;;;;;;9.85;4.72;;;31.60;96.40;;;;;;4192472;28;20044;-62
2022/07/06 02:42:18;;;;;;;11.15;5.40;;;31.60;96.60;;;;;;4194161;28;20052;-62
2022/07/06 02:44:23;;;;;;;11.50;4.90;;;31.60;96.40;;;;;;4185146;28;20163;-62
2022/07/06 02:46:28;;;;;;;11.90;4.95;;;31.60;96.30;;;;;;4175602;28;20127;-62
2022/07/06 02:48:36;;;;;;;10.68;4.70;;;31.70;96.30;;;;;;4182987;28;20095;-62
2022/07/06 02:50:47;;;;;;;9.45;4.10;;;31.80;96.10;;;;;;4181677;28;20095;-62
2022/07/06 02:53:07;;;;;;;8.65;4.30;;;31.80;96.10;;;;;;4175751;28;20044;-62
2022/07/06 02:55:14;;;;;;;11.57;5.45;;;31.80;96.10;;;;;;4174494;28;20041;-62
2022/07/06 02:57:20;;;;;;;7.53;4.38;;;31.90;96.10;;;;;;4159969;28;20050;-62
2022/07/06 02:59:28;;;;;;;7.93;4.93;;;31.90;96.30;;;;;;4174592;28;20111;-62
2022/07/06 03:01:34;;;;;;;10.45;4.45;;;31.90;96.40;;;;;;4170881;28;20132;-61
2022/07/06 03:03:39;;;;;;;8.00;4.38;;;31.90;96.10;;;;;;4160852;28;20632;-62
2022/07/06 03:05:46;;;;;;;9.52;4.13;;;31.90;95.80;;;;;;4151561;28;20061;-62
2022/07/06 03:07:55;;;;;;;8.60;4.05;;;32.00;95.50;;;;;;4192757;28;20067;-62
2022/07/06 03:10:00;;;;;;;7.45;4.07;;;32.00;95.50;;;;;;4190635;28;20577;-61
2022/07/06 03:12:08;;;;;;;9.32;4.82;;;32.10;95.90;;;;;;4172697;28;20057;-61
2022/07/06 03:14:26;;;;;;;11.32;6.65;;;32.20;96.00;;;;;;4166503;28;20082;-62
2022/07/06 03:16:32;;;;;;;9.38;5.28;;;32.30;95.70;;;;;;4162463;28;20039;-62
2022/07/06 03:18:39;;;;;;;8.35;5.15;;;32.20;95.70;;;;;;4147778;28;20049;-62
2022/07/06 03:20:47;;;;;;;7.22;4.60;;;32.30;95.70;;;;;;4186401;28;20068;-62
2022/07/06 03:22:52;;;;;;;8.73;4.72;;;32.40;95.40;;;;;;4192419;28;20048;-62
2022/07/06 03:24:58;;;;;;;10.75;5.07;;;32.40;95.40;;;;;;4192281;28;20048;-62
2022/07/06 03:27:04;;;;;;;6.93;4.57;;;32.40;95.30;;;;;;4207190;28;20080;-62
2022/07/06 03:29:09;;;;;;;10.48;4.75;;;32.50;95.30;;;;;;4192906;28;20052;-62
2022/07/06 03:31:15;;;;;;;8.20;4.32;;;32.50;95.40;;;;;;4183001;28;20175;-62
2022/07/06 03:33:22;;;;;;;6.80;4.30;;;32.50;95.40;;;;;;4174961;28;20594;-62
2022/07/06 03:35:30;;;;;;;8.27;4.32;;;32.50;95.30;;;;;;4175387;28;20053;-62
2022/07/06 03:37:38;;;;;;;7.97;4.65;;;32.50;95.30;;;;;;4174616;28;20053;-62
2022/07/06 03:39:45;;;;;;;10.73;4.70;;;32.50;95.30;;;;;;4188350;28;20103;-61
2022/07/06 03:41:50;;;;;;;7.65;4.15;;;32.50;95.60;;;;;;4190218;28;20048;-62
2022/07/06 03:43:58;;;;;;;11.43;5.40;;;32.60;95.60;;;;;;4192413;28;20059;-62
2022/07/06 03:46:05;;;;;;;11.77;6.15;;;32.60;95.50;;;;;;4191243;28;20530;-61
2022/07/06 03:48:10;;;;;;;12.75;6.07;;;32.60;95.40;;;;;;4189851;28;20162;-62
2022/07/06 03:50:19;;;;;;;14.25;6.38;;;32.60;95.30;;;;;;4173980;28;20134;-62
2022/07/06 03:52:26;;;;;;;13.57;6.25;;;32.60;95.30;;;;;;4171487;28;20049;-62
2022/07/06 03:54:41;;;;;;;12.73;5.30;;;32.60;95.20;;;;;;4158883;28;20111;-62
2022/07/06 03:56:53;;;;;;;11.43;5.97;;;32.60;95.10;;;;;;4169662;28;20524;-62
2022/07/06 03:59:02;;;;;;;10.13;5.55;;;32.50;95.20;;;;;;4175644;28;20045;-62
2022/07/06 04:01:10;;;;;;;11.88;5.38;;;32.60;94.70;;;;;;4178329;28;20040;-62
2022/07/06 04:03:17;;;;;;;11.25;5.65;;;32.70;95.00;;;;;;4179692;28;20049;-62
2022/07/06 04:05:26;;;;;;;10.80;5.70;;;32.80;94.90;;;;;;4177876;28;20059;-62
2022/07/06 04:07:30;;;;;;;8.05;4.57;;;32.80;94.90;;;;;;4178468;28;20061;-62
2022/07/06 04:09:37;;;;;;;10.57;4.90;;;32.90;94.90;;;;;;4178393;28;20044;-62
2022/07/06 04:11:45;;;;;;;7.93;4.28;;;32.90;95.20;;;;;;4177731;28;20052;-62
2022/07/06 04:13:50;;;;;;;7.40;3.67;;;32.90;95.10;;;;;;4179943;28;20127;-62
2022/07/06 04:15:55;;;;;;;8.95;4.18;;;33.00;94.80;;;;;;4179490;28;20080;-62
2022/07/06 04:18:02;;;;;;;9.57;4.22;;;33.00;94.80;;;;;;4179384;28;20449;-62
2022/07/06 04:20:12;;;;;;;8.00;3.70;;;32.90;94.60;;;;;;4177847;28;20045;-62
2022/07/06 04:22:19;;;;;;;9.43;4.10;;;32.90;94.10;;;;;;4161955;28;20058;-62
2022/07/06 04:24:27;;;;;;;6.93;3.55;;;32.90;94.20;;;;;;4178034;28;20045;-62
2022/07/06 04:26:31;;;;;;;8.25;3.58;;;32.90;94.20;;;;;;4179193;28;20073;-62
2022/07/06 04:28:36;;;;;;;6.47;3.28;;;32.90;94.20;;;;;;4178339;28;20041;-62
2022/07/06 04:30:43;;;;;;;7.00;3.72;;;33.10;94.00;;;;;;4176952;28;20059;-62
2022/07/06 04:32:52;;;;;;;8.43;3.97;;;33.20;94.00;;;;;;4161468;28;20412;-62
2022/07/06 04:35:00;;;;;;;7.32;4.15;;;33.30;94.00;;;;;;4164797;28;20043;-61
2022/07/06 04:37:07;;;;;;;6.72;3.78;;;33.30;94.00;;;;;;4167626;28;20049;-62
2022/07/06 04:39:13;;;;;;;6.05;3.10;;;33.40;93.90;;;;;;4177359;28;20048;-61
2022/07/06 04:41:19;;;;;;;7.03;3.53;;;33.40;94.00;;;;;;4140065;28;20054;-61
2022/07/06 04:43:26;;;;;;;6.97;3.20;;;33.50;94.00;;;;;;4177689;28;20613;-61
2022/07/06 04:45:31;;;;;;;8.57;3.78;;;33.50;93.70;;;;;;4177759;28;20507;-61
2022/07/06 04:47:36;;;;;;;9.02;3.35;;;33.60;93.50;;;;;;4177528;28;20052;-61
2022/07/06 04:49:43;;;;;;;4.57;3.20;;;33.70;93.40;;;;;;4176746;28;20264;-61
2022/07/06 04:51:49;;;;;;;6.55;3.25;;;33.80;93.40;;;;;;4177181;28;20056;-61
2022/07/06 04:53:55;;;;;;;7.78;3.38;;;33.80;93.20;;;;;;4177827;28;20033;-61
2022/07/06 04:56:04;;;;;;;6.85;3.25;;;33.80;93.20;;;;;;4178175;28;20045;-61
2022/07/06 04:58:12;;;;;;;5.68;3.20;;;33.80;93.40;;;;;;4177724;28;20091;-61
2022/07/06 05:00:18;;;;;;;7.03;3.10;;;33.60;93.30;;;;;;4159682;28;20128;-61
2022/07/06 05:02:26;;;;;;;5.30;3.10;;;33.50;93.00;;;;;;4177252;28;20090;-62
2022/07/06 05:04:32;;;;;;;4.82;2.90;;;33.60;93.00;;;;;;4177171;28;20519;-60
2022/07/06 05:06:40;;;;;;;5.85;3.17;;;33.70;92.90;;;;;;4177295;28;20041;-60
2022/07/06 05:08:46;;;;;;;5.53;2.90;;;33.90;92.90;;;;;;4177311;28;20409;-60
2022/07/06 05:10:51;;;;;;;6.35;3.00;;;34.00;92.80;;;;;;4177630;28;20049;-61
2022/07/06 05:12:58;;;;;;;7.15;3.38;;;34.20;92.70;;;;;;4178568;28;20051;-61
2022/07/06 05:15:06;;;;;;;6.22;3.22;;;34.30;92.70;;;;;;4177131;28;20043;-60
2022/07/06 05:17:11;;;;;;;6.45;3.22;;;34.40;92.70;;;;;;4177284;28;20052;-61
2022/07/06 05:19:17;;;;;;;7.05;3.22;;;34.30;92.60;;;;;;4176894;28;20049;-60
2022/07/06 05:21:25;;;;;;;6.45;3.13;;;34.40;92.30;;;;;;4177170;28;20546;-60
2022/07/06 05:23:30;;;;;;;8.02;2.90;;;34.70;92.10;;;;;;4161140;28;20049;-60
2022/07/06 05:25:38;;;;;;;8.40;3.17;;;34.80;91.80;;;;;;4176342;28;20740;-61
2022/07/06 05:27:43;;;;;;;3.97;2.63;;;34.90;91.60;;;;;;4177272;28;20129;-60
2022/07/06 05:29:49;;;;;;;4.78;2.90;;;34.80;91.70;;;;;;4176946;28;20541;-60
2022/07/06 05:31:54;;;;;;;5.55;2.92;;;34.70;91.70;;;;;;4176977;28;20480;-60
2022/07/06 05:34:01;;;;;;;5.13;2.80;;;34.70;91.70;;;;;;4177001;28;20099;-60
2022/07/06 05:36:06;;;;;;;4.35;2.88;;;34.70;91.90;;;;;;4176122;28;20056;-59
2022/07/06 05:38:14;;;;;;;6.00;2.97;;;34.70;91.70;;;;;;4178342;28;20054;-59
2022/07/06 05:40:21;;;;;;;6.30;3.00;;;34.70;92.20;;;;;;4178018;28;20044;-59
2022/07/06 05:42:26;;;;;;;5.32;3.20;;;34.70;92.40;;;;;;4176795;28;20140;-61
2022/07/06 05:44:31;;;;;;;6.25;3.33;;;34.80;92.60;;;;;;4176819;28;20464;-60
2022/07/06 05:46:38;;;;;;;5.97;3.28;;;34.80;92.50;;;;;;4177827;28;20053;-60
2022/07/06 05:51:01;;;;;;;4.93;2.88;;;34.80;92.50;;;;;;4175658;28;20057;-61
2022/07/06 05:53:09;;;;;;;5.38;3.15;;;34.60;92.70;;;;;;4176874;28;20370;-61
2022/07/06 05:55:28;;;;;;;7.15;2.95;;;34.60;92.50;;;;;;4174557;28;20128;-61
2022/07/06 05:57:35;;;;;;;4.25;2.80;;;34.80;92.10;;;;;;4162455;28;20045;-60
2022/07/06 05:59:42;;;;;;;6.32;3.40;;;34.90;92.10;;;;;;4159968;28;20041;-61
2022/07/06 06:01:47;;;;;;;5.13;2.78;;;35.00;92.00;;;;;;4169058;28;20104;-61
2022/07/06 06:03:57;;;;;;;8.73;3.20;;;34.90;91.90;;;;;;4176526;28;20112;-61
2022/07/06 06:06:03;;;;;;;8.50;4.03;;;35.10;91.90;;;;;;4176300;28;20057;-61
2022/07/06 06:08:08;;;;;;;10.07;3.50;;;35.10;92.10;;;;;;4160522;28;20045;-61
2022/07/06 06:10:14;;;;;;;4.78;3.17;;;35.00;91.90;;;;;;4176435;28;20049;-60
2022/07/06 06:12:22;;;;;;;7.03;3.00;;;35.00;91.90;;;;;;4176654;28;20492;-60
2022/07/06 06:14:27;;;;;;;6.72;3.10;;;34.90;91.90;;;;;;4177581;28;20041;-60
2022/07/06 06:16:34;;;;;;;7.60;3.00;;;35.20;91.40;;;;;;4176430;28;20106;-61
2022/07/06 06:18:41;;;;;;;4.50;2.75;;;35.30;91.40;;;;;;4192563;28;20070;-62
2022/07/06 06:20:46;;;;;;;4.88;2.97;;;35.40;91.60;;;;;;4177349;28;20044;-61
2022/07/06 06:22:53;;;;;;;6.07;2.92;;;35.50;91.40;;;;;;4177001;28;20052;-61
2022/07/06 06:24:59;;;;;;;5.32;2.97;;;35.60;91.20;;;;;;4176307;28;20079;-62
2022/07/06 06:27:05;;;;;;;4.45;2.90;;;35.60;90.50;;;;;;4177488;28;20052;-61
2022/07/06 06:29:11;;;;;;;7.25;2.75;;;35.60;90.70;;;;;;4177514;28;20103;-61
2022/07/06 06:31:19;;;;;;;7.03;3.03;;;35.60;90.90;;;;;;4176913;28;20051;-60
2022/07/06 06:33:26;;;;;;;4.95;2.67;;;35.70;90.80;;;;;;4176937;28;20044;-61
2022/07/06 06:35:32;;;;;;;6.97;2.80;;;35.60;90.70;;;;;;4141792;28;20046;-60
2022/07/06 06:37:39;;;;;;;4.47;2.83;;;35.50;91.00;;;;;;4177337;28;20049;-60
2022/07/06 06:39:43;;;;;;;6.53;2.92;;;35.40;91.00;;;;;;4177272;28;20045;-60
2022/07/06 06:41:48;;;;;;;5.47;2.70;;;35.60;90.80;;;;;;4176777;28;20053;-60
2022/07/06 06:43:55;;;;;;;9.55;3.00;;;35.70;90.80;;;;;;4177349;28;20053;-60
2022/07/06 06:46:06;;;;;;;6.57;2.90;;;35.80;90.60;;;;;;4177526;28;20079;-61
2022/07/06 06:48:13;;;;;;;5.75;2.58;;;35.90;90.50;;;;;;4177063;28;20048;-61
2022/07/06 06:50:23;;;;;;;5.22;2.38;;;36.00;90.10;;;;;;4176430;28;20503;-61
2022/07/06 06:52:30;;;;;;;6.85;2.50;;;35.90;90.30;;;;;;4177249;28;20422;-61
2022/07/06 06:54:42;;;;;;;;;;;35.80;90.30;;;;;;4176562;28;20045;-60
2022/07/06 06:56:48;;;;;;;5.55;2.78;;;35.80;90.50;;;;;;4176784;28;19920;-61
2022/07/06 06:58:53;;;;;;;5.63;3.05;;;35.90;90.20;;;;;;4176636;28;20083;-61
2022/07/06 07:01:24;;;;;;;5.47;3.22;;;35.80;90.30;;;;;;4175859;28;20041;-61
2022/07/06 07:03:31;;;;;;;5.80;3.35;;;35.90;90.00;;;;;;4177209;28;20048;-61
2022/07/06 07:05:35;;;;;;;5.28;3.53;;;35.90;89.90;;;;;;4175442;28;20454;-61
2022/07/06 07:07:43;;;;;;;4.85;2.80;;;35.70;90.20;;;;;;4176607;28;20523;-61
2022/07/06 07:09:49;;;;;;;6.82;3.47;;;35.50;90.90;;;;;;4176427;28;20036;-61
2022/07/06 07:11:54;;;;;;;6.13;2.92;;;35.80;90.60;;;;;;4175798;28;20079;-61
2022/07/06 07:14:02;;;;;;;4.88;2.95;;;35.90;90.20;;;;;;4176751;28;20041;-61
2022/07/06 07:16:09;;;;;;;6.97;3.28;;;35.80;89.60;;;;;;4176709;28;20439;-61
2022/07/06 07:18:14;;;;;;;6.22;2.60;;;35.80;89.70;;;;;;4177588;28;20148;-61
2022/07/06 07:20:19;;;;;;;4.35;2.45;;;35.80;89.70;;;;;;4176940;28;20048;-61
2022/07/06 07:22:26;;;;;;;4.15;2.83;;;35.70;89.00;;;;;;4176843;28;20041;-62
2022/07/06 07:24:31;;;;;;;5.38;2.85;;;35.50;90.10;;;;;;4176757;28;20049;-60
2022/07/06 07:26:37;;;;;;;5.80;2.58;;;35.30;90.00;;;;;;4176724;28;20399;-61
2022/07/06 07:28:44;;;;;;;4.72;2.58;;;35.10;90.40;;;;;;4176805;28;20075;-61
2022/07/06 07:30:50;;;;;;;5.18;2.53;;;35.00;90.30;;;;;;4175526;28;20033;-61
2022/07/06 07:32:57;;;;;;;4.65;2.70;;;34.90;90.40;;;;;;4176840;28;20049;-62
2022/07/06 07:35:05;;;;;;;5.15;2.60;;;34.90;90.10;;;;;;4177101;28;20040;-61
2022/07/06 07:37:10;;;;;;;7.50;2.90;;;34.80;90.20;;;;;;4179824;28;20060;-61
2022/07/06 07:39:18;;;;;;;3.97;2.50;;;34.70;90.10;;;;;;4178950;28;20044;-61
2022/07/06 07:41:24;;;;;;;3.88;2.30;;;34.60;90.20;;;;;;4195350;28;20044;-61
2022/07/06 07:43:29;;;;;;;4.22;2.45;;;34.50;90.40;;;;;;4179636;28;20056;-61
2022/07/06 07:45:36;;;;;;;4.25;2.15;;;34.50;90.10;;;;;;4128174;28;20150;-61
2022/07/06 07:47:44;;;;;;;6.32;2.40;;;34.50;90.10;;;;;;4178266;28;20296;-61
2022/07/06 07:49:49;;;;;;;6.57;2.78;;;34.40;90.50;;;;;;4179716;28;20052;-62
2022/07/06 07:51:54;;;;;;;6.47;2.67;;;34.40;90.60;;;;;;4180059;28;20174;-61
2022/07/06 07:54:00;;;;;;;5.68;2.83;;;34.40;90.60;;;;;;4178714;28;20045;-60
2022/07/06 07:56:06;;;;;;;5.38;2.55;;;34.30;90.70;;;;;;4178445;28;20087;-61
2022/07/06 07:58:12;;;;;;;8.35;2.40;;;34.30;90.80;;;;;;4178180;28;20060;-60
2022/07/06 08:00:21;;;;;;;5.45;2.28;;;34.30;90.90;;;;;;4178490;28;20140;-60
2022/07/06 08:02:30;;;;;;;5.45;2.58;;;34.30;90.80;;;;;;4178469;28;20060;-61
2022/07/06 08:04:37;;;;;;;4.40;2.13;;;34.30;90.90;;;;;;4178656;28;20475;-60
2022/07/06 08:06:44;;;;;;;4.35;2.45;;;34.20;91.50;;;;;;4179539;28;20549;-60
2022/07/06 08:08:50;;;;;;;5.40;2.53;;;34.20;91.20;;;;;;4178752;28;20515;-60
2022/07/06 08:10:57;;;;;;;6.57;2.72;;;34.20;91.30;;;;;;4179341;28;20051;-61
2022/07/06 08:13:20;;;;;;;7.05;2.92;;;34.20;91.30;;;;;;4179086;28;20106;-60
2022/07/06 08:15:25;;;;;;;5.95;3.03;;;34.20;91.30;;;;;;4179336;28;20044;-60
2022/07/06 08:17:30;;;;;;;8.65;3.35;;;34.20;91.20;;;;;;4179296;28;20110;-61
2022/07/06 08:19:34;;;;;;;4.40;2.80;;;34.30;90.80;;;;;;4179176;28;20045;-61
2022/07/06 08:21:40;;;;;;;5.97;2.60;;;34.30;90.60;;;;;;4178882;28;20087;-61
2022/07/06 08:23:47;;;;;;;4.50;2.30;;;34.20;90.70;;;;;;4179147;28;20329;-61
2022/07/06 08:25:51;;;;;;;5.50;2.70;;;34.10;90.80;;;;;;4178105;28;20059;-61
2022/07/06 08:27:56;;;;;;;3.67;2.25;;;34.20;90.90;;;;;;4177898;28;20599;-60
2022/07/06 08:30:00;;;;;;;5.70;3.25;;;34.20;90.90;;;;;;4179171;28;20045;-59
2022/07/06 08:32:09;;;;;;;4.65;3.10;;;34.20;91.30;;;;;;4179416;28;20075;-61
2022/07/06 08:34:28;;;;;;;5.60;2.70;;;34.20;91.00;;;;;;4179491;28;20133;-60
2022/07/06 08:36:38;;;;;;;4.18;2.30;;;34.10;91.40;;;;;;4159916;28;20507;-60
2022/07/06 08:38:45;;;;;;;3.00;1.90;;;34.10;91.30;;;;;;4179657;28;20045;-59
2022/07/06 08:40:50;;;;;;;3.20;1.73;;;34.10;91.30;;;;;;4179177;28;20438;-59
2022/07/06 08:42:55;;;;;;;3.97;1.90;;;34.10;91.70;;;;;;4179414;28;20041;-60
2022/07/06 08:45:04;;;;;;;6.35;1.98;;;34.00;91.60;;;;;;4179001;28;20499;-60
2022/07/06 08:47:09;;;;;;;4.07;2.10;;;34.00;91.60;;;;;;4177622;28;20487;-60
2022/07/06 08:49:19;;;;;;;5.93;2.20;;;34.00;91.40;;;;;;4143634;28;20054;-61
2022/07/06 08:51:25;;;;;;;3.17;1.55;;;34.00;91.40;;;;;;4127018;28;20072;-60
2022/07/06 08:53:33;;;;;;;2.78;1.52;;;34.10;91.40;;;;;;4127142;28;20505;-60
2022/07/06 08:55:38;;;;;;;4.68;1.70;;;34.10;91.00;;;;;;4127212;28;20050;-60
2022/07/06 08:57:46;;;;;;;4.47;2.00;;;34.00;91.60;;;;;;4127585;28;20058;-61
2022/07/06 08:59:50;;;;;;;2.67;1.73;;;34.00;91.60;;;;;;4127620;28;20327;-61
2022/07/06 09:01:55;;;;;;;5.80;1.90;;;34.00;91.50;;;;;;4126993;28;20049;-61
2022/07/06 09:04:00;;;;;;;5.15;2.08;;;33.90;91.60;;;;;;4118778;28;20055;-60
2022/07/06 09:06:06;;;;;;;3.30;1.60;;;34.00;90.80;;;;;;4111092;28;20572;-61
2022/07/06 09:08:12;;;;;;;3.33;1.83;;;34.00;91.20;;;;;;4095035;28;20540;-61
2022/07/06 09:10:21;;;;;;;9.88;6.78;;;34.00;91.10;;;;;;4094217;28;20055;-60
2022/07/06 09:12:29;;;;;;;9.32;5.20;;;33.90;91.00;;;;;;4105375;28;20092;-61
2022/07/06 09:14:36;;;;;;;4.20;2.95;;;33.80;91.00;;;;;;4109144;28;20051;-60
2022/07/06 09:16:43;;;;;;;6.13;3.38;;;33.80;90.80;;;;;;4110471;28;20047;-60
2022/07/06 09:18:48;;;;;;;13.50;6.80;;;33.70;90.70;;;;;;4110714;28;20138;-60
2022/07/06 09:20:53;;;;;;;8.15;4.85;;;33.50;91.20;;;;;;4121463;28;20121;-60
2022/07/06 09:23:01;;;;;;;16.67;6.57;;;33.20;92.10;;;;;;4148158;28;20151;-60
2022/07/06 09:25:14;;;;;;;11.95;6.47;;;32.60;93.30;;;;;;4159494;28;20053;-61
2022/07/06 09:27:21;;;;;;;12.85;6.90;;;32.30;93.80;;;;;;4159388;28;20132;-61
2022/07/06 09:29:30;;;;;;;38.83;24.65;;;32.50;93.90;;;;;;4143044;28;20053;-61
2022/07/06 09:31:39;;;;;;;18.45;9.63;;;32.60;93.90;;;;;;4158985;28;20521;-61
2022/07/06 09:33:57;;;;;;;18.15;7.72;;;32.60;94.00;;;;;;4159141;28;20431;-61
2022/07/06 09:36:03;;;;;;;30.17;25.45;;;32.80;93.90;;;;;;4158876;28;20546;-60
2022/07/06 09:38:11;;;;;;;36.15;25.05;;;32.60;94.10;;;;;;4143354;28;20057;-61
2022/07/06 09:40:18;;;;;;;23.38;17.15;;;32.60;94.10;;;;;;4189382;28;20307;-60
2022/07/06 09:42:26;;;;;;;56.30;44.45;;;32.60;94.20;;;;;;4192371;28;20052;-60
2022/07/06 09:44:33;;;;;;;44.65;34.53;;;32.50;94.30;;;;;;4190523;28;20044;-61
2022/07/06 09:46:41;;;;;;;26.45;18.58;;;32.50;94.20;;;;;;4188220;28;20056;-61
2022/07/06 09:48:48;;;;;;;12.63;6.22;;;32.30;94.20;;;;;;4191349;28;20044;-60
2022/07/06 09:50:57;;;;;;;17.48;5.88;;;32.20;94.00;;;;;;4190660;28;20082;-61
2022/07/06 09:53:04;;;;;;;16.13;7.68;;;32.20;94.10;;;;;;4189355;28;20178;-61
2022/07/06 09:55:16;;;;;;;14.55;6.93;;;32.10;94.10;;;;;;4190790;28;20483;-60
2022/07/06 09:57:22;;;;;;;16.48;8.32;;;32.30;94.00;;;;;;4188302;28;20040;-61
2022/07/06 09:59:31;;;;;;;23.17;11.25;;;32.20;94.30;;;;;;4172131;28;20072;-61
2022/07/06 10:01:38;;;;;;;22.05;9.77;;;32.20;94.50;;;;;;4173225;28;20758;-61
2022/07/06 10:03:42;;;;;;;17.60;9.40;;;32.30;94.40;;;;;;4168802;28;20045;-61
2022/07/06 10:05:49;;;;;;;20.20;8.35;;;32.20;94.30;;;;;;4167558;28;20104;-60
2022/07/06 10:08:00;;;;;;;15.55;5.38;;;31.90;94.40;;;;;;4168746;28;20047;-60
2022/07/06 10:10:05;;;;;;;9.73;5.95;;;31.80;94.40;;;;;;4168327;28;20045;-61
2022/07/06 10:12:13;;;;;;;24.23;13.23;;;31.70;94.80;;;;;;4168696;28;20056;-62
2022/07/06 10:14:25;;;;;;;10.73;5.57;;;31.80;95.00;;;;;;4165952;28;20080;-62
2022/07/06 10:16:30;;;;;;;16.23;7.07;;;31.90;94.80;;;;;;4167648;28;20076;-60
2022/07/06 10:18:34;;;;;;;14.52;6.55;;;31.70;95.00;;;;;;4155617;28;20292;-60
2022/07/06 10:20:41;;;;;;;10.55;5.90;;;31.90;95.10;;;;;;4166368;28;20036;-60
2022/07/06 10:22:48;;;;;;;13.15;5.20;;;31.70;95.30;;;;;;4166165;28;20048;-61
2022/07/06 10:24:54;;;;;;;10.27;4.80;;;31.70;95.40;;;;;;4165454;28;20045;-62
2022/07/06 10:26:59;;;;;;;9.23;5.50;;;31.80;95.40;;;;;;4167720;28;20040;-61
2022/07/06 10:29:04;;;;;;;13.15;6.20;;;31.60;95.50;;;;;;4153497;28;20151;-60
2022/07/06 10:31:11;;;;;;;9.23;5.15;;;31.60;95.70;;;;;;4139017;28;20493;-61
2022/07/06 10:33:18;;;;;;;10.45;5.80;;;31.60;95.50;;;;;;4170490;28;20056;-61
2022/07/06 10:35:30;;;;;;;12.27;5.85;;;31.30;95.90;;;;;;4168766;28;20541;-61
2022/07/06 10:37:35;;;;;;;20.42;10.90;;;31.50;96.10;;;;;;4170791;28;20076;-61
2022/07/06 10:42:09;;;;;;;13.85;8.82;;;31.20;96.60;;;;;;4169860;28;20045;-59
2022/07/06 10:44:18;;;;;;;17.00;8.55;;;31.20;96.60;;;;;;4172935;28;20055;-61
2022/07/06 10:46:27;;;;;;;19.45;10.43;;;31.30;96.70;;;;;;4172054;28;20037;-61
2022/07/06 10:48:35;;;;;;;14.98;8.90;;;31.30;95.80;;;;;;4172045;28;20107;-62
2022/07/06 10:50:41;;;;;;;16.65;8.52;;;31.20;96.10;;;;;;4175268;28;20083;-61
2022/07/06 10:53:13;;;;;;;12.82;7.00;;;31.30;95.60;;;;;;4171993;28;20045;-62
2022/07/06 10:55:30;;;;;;;12.63;5.70;;;31.30;95.60;;;;;;4171124;28;20049;-60
2022/07/06 10:57:54;;;;;;;8.48;5.18;;;31.30;95.50;;;;;;4172520;28;20047;-61
2022/07/06 11:00:03;;;;;;;8.68;4.90;;;31.30;95.70;;;;;;4172435;28;20051;-62
2022/07/06 11:02:15;;;;;;;15.02;8.18;;;31.40;95.50;;;;;;4169838;28;20148;-62
2022/07/06 11:04:23;;;;;;;11.20;5.95;;;31.30;95.60;;;;;;4172882;28;20049;-60